12°C Temp
9°C Dewpoint
% Humidity
Temperature
21 KM/H
13 MPH
11 KTS
220°
South West

Wind Speed
Partly Cloudy
Conditions
Pressure 1018.92 (hPa) - 30.09 (in)
Visibility 6.2 (mi) - 10.0 (km)

Current Conditions
EPKT
Location 6km (3.2mi)
Metar :EPKT 230800Z 22011KT 9999 FEW016 BKN036 12/09 Q1019
Thu 23rd September 10:00 am

Airport
  Metar Aviation API Data Provided by https://www.checkwx.com/ CSS/SVG/PHP scripts by weather34.com © 2015-2021